KVLD/VLD METAR and TAF weather

Enter ICAO airport designator
Station Type Date Time Source
KVLD METAR 2020/08/05 16:53 UTC NOAA

KVLD 051653Z 23007KT 10SM FEW041 33/22 A3001 RMK AO2 SLP167 T03330222


Station Type Date Time Source
KVLD Decoded METAR 2020/08/05 16:53 UTC NOAA

VALDOSTA REGIONAL AIRPORT, GA, United States (KVLD) 30-47N 083-16W
Aug 05, 2020 - 12:53 PM EDT / 2020.08.05 1653 UTC
Wind: from the SW (230 degrees) at 8 MPH (7 KT):0
Visibility: 10 mile(s):0
Sky conditions: mostly clear
Temperature: 91.9 F (33.3 C)
Heat index: 99.5 F (37.5 C):1
Dew Point: 72.0 F (22.2 C)
Relative Humidity: 52%
Pressure (altimeter): 30.01 in. Hg (1016 hPa)
ob: KVLD 051653Z 23007KT 10SM FEW041 33/22 A3001 RMK AO2 SLP167 T03330222
cycle: 17

Station Type Date Time Source
KVLD TAF 2020/08/05 12:22 UTC NOAA

TAF KVLD 051120Z 0512/0612 00000KT P6SM SCT035
FM051900 18005KT P6SM VCTS BKN040CB
TEMPO 0521/0601 2SM TSRA BKN035CB
FM060300 00000KT P6SM SCT030

Example: see airport list